createdAt,value
2022-10-19T00:00:00.289Z,12.9
2022-10-19T00:01:00.439Z,12.9
2022-10-19T00:02:00.424Z,12.9
2022-10-19T00:03:00.342Z,12.9
2022-10-19T00:04:02.424Z,12.9
2022-10-19T00:05:00.412Z,12.9
2022-10-19T00:06:00.327Z,12.9
2022-10-19T00:07:00.446Z,12.9
2022-10-19T00:08:00.322Z,12.9
2022-10-19T00:09:00.301Z,12.9
2022-10-19T00:10:00.334Z,12.9
2022-10-19T00:11:00.326Z,12.9
2022-10-19T00:12:00.335Z,12.9
2022-10-19T00:13:00.529Z,12.8
2022-10-19T00:14:00.512Z,12.8
2022-10-19T00:15:00.294Z,12.8
2022-10-19T00:16:00.289Z,12.8
2022-10-19T00:17:00.276Z,12.8
2022-10-19T00:18:00.296Z,12.8
2022-10-19T00:19:00.457Z,12.8
2022-10-19T00:20:00.290Z,12.8
2022-10-19T00:21:00.273Z,12.8
2022-10-19T00:22:00.291Z,12.8
2022-10-19T00:23:00.343Z,12.8
2022-10-19T00:24:00.333Z,12.7
2022-10-19T00:25:00.475Z,12.7
2022-10-19T00:26:00.302Z,12.7
2022-10-19T00:27:00.334Z,12.7
2022-10-19T00:28:00.319Z,12.7
2022-10-19T00:29:00.382Z,12.7
2022-10-19T00:30:00.455Z,12.8
2022-10-19T00:31:00.453Z,12.7
2022-10-19T00:32:00.330Z,12.7
2022-10-19T00:33:00.339Z,12.7
2022-10-19T00:34:00.366Z,12.8
2022-10-19T00:35:00.312Z,12.7
2022-10-19T00:36:00.312Z,12.7
2022-10-19T00:37:00.428Z,12.7
2022-10-19T00:38:00.314Z,12.7
2022-10-19T00:39:00.276Z,12.7
2022-10-19T00:40:00.336Z,12.7
2022-10-19T00:41:00.295Z,12.7
2022-10-19T00:42:00.279Z,12.8
2022-10-19T00:43:00.489Z,12.8
2022-10-19T00:44:00.307Z,12.8
2022-10-19T00:45:00.431Z,12.8
2022-10-19T00:46:00.415Z,12.8
2022-10-19T00:47:00.319Z,12.8
2022-10-19T00:48:00.311Z,12.9
2022-10-19T00:49:01.407Z,12.9
2022-10-19T00:50:00.273Z,12.9
2022-10-19T00:51:00.299Z,13.0
2022-10-19T00:52:00.307Z,13.0
2022-10-19T00:53:00.289Z,13.2
2022-10-19T00:54:00.278Z,13.2
2022-10-19T00:55:00.424Z,13.2
2022-10-19T00:56:00.309Z,13.2
2022-10-19T00:57:00.311Z,13.2
2022-10-19T00:58:00.288Z,13.2
2022-10-19T00:59:00.304Z,13.1
2022-10-19T01:00:00.290Z,13.1
2022-10-19T01:01:00.496Z,13.1
2022-10-19T01:02:00.352Z,13.0
2022-10-19T01:03:00.385Z,13.0
2022-10-19T01:04:00.309Z,13.0
2022-10-19T01:05:00.291Z,13.0
2022-10-19T01:06:00.290Z,12.9
2022-10-19T01:07:00.522Z,12.8
2022-10-19T01:08:00.300Z,12.8
2022-10-19T01:09:00.377Z,12.7
2022-10-19T01:10:00.280Z,12.7
2022-10-19T01:11:00.373Z,12.6
2022-10-19T01:12:00.340Z,12.6
2022-10-19T01:13:00.577Z,12.6
2022-10-19T01:14:00.377Z,12.5
2022-10-19T01:15:00.292Z,12.5
2022-10-19T01:16:00.446Z,12.5
2022-10-19T01:17:00.395Z,12.5
2022-10-19T01:18:00.300Z,12.5
2022-10-19T01:19:00.415Z,12.4
2022-10-19T01:20:00.294Z,12.4
2022-10-19T01:21:00.305Z,12.4
2022-10-19T01:22:00.313Z,12.4
2022-10-19T01:23:00.299Z,12.4
2022-10-19T01:24:00.295Z,12.4
2022-10-19T01:25:00.552Z,12.4
2022-10-19T01:26:00.315Z,12.4
2022-10-19T01:27:00.300Z,12.4
2022-10-19T01:28:00.298Z,12.4
2022-10-19T01:29:00.350Z,12.4
2022-10-19T01:30:00.312Z,12.4
2022-10-19T01:31:00.416Z,12.4
2022-10-19T01:32:00.530Z,12.4
2022-10-19T01:33:00.338Z,12.4
2022-10-19T01:34:00.284Z,12.4
2022-10-19T01:35:00.312Z,12.4
2022-10-19T01:36:00.328Z,12.3
2022-10-19T01:37:00.528Z,12.3
2022-10-19T01:38:00.302Z,12.3
2022-10-19T01:39:00.302Z,12.3
2022-10-19T01:40:00.298Z,12.3
2022-10-19T01:41:00.295Z,12.3
2022-10-19T01:42:00.403Z,12.4
2022-10-19T01:43:00.512Z,12.4
2022-10-19T01:44:00.315Z,12.3
2022-10-19T01:45:00.319Z,12.3
2022-10-19T01:46:00.311Z,12.3
2022-10-19T01:47:00.431Z,12.3
2022-10-19T01:48:00.382Z,12.3
2022-10-19T01:49:00.556Z,12.3
2022-10-19T01:50:00.310Z,12.3
2022-10-19T01:51:00.305Z,12.3
2022-10-19T01:52:00.341Z,12.3
2022-10-19T01:53:00.314Z,12.2
2022-10-19T01:54:00.330Z,12.2
2022-10-19T01:55:00.433Z,12.2
2022-10-19T01:56:00.285Z,12.2
2022-10-19T01:57:00.342Z,12.2
2022-10-19T01:58:00.313Z,12.2
2022-10-19T01:59:00.300Z,12.2
2022-10-19T02:00:00.342Z,12.1
2022-10-19T02:01:00.536Z,12.1
2022-10-19T02:02:00.303Z,12.1
2022-10-19T02:03:00.531Z,12.1
2022-10-19T02:04:00.293Z,12.2
2022-10-19T02:05:00.302Z,12.2
2022-10-19T02:06:00.309Z,12.2
2022-10-19T02:07:00.443Z,12.2
2022-10-19T02:08:00.309Z,12.2
2022-10-19T02:09:00.304Z,12.2
2022-10-19T02:10:00.396Z,12.1
2022-10-19T02:11:00.316Z,12.1
2022-10-19T02:12:00.293Z,12.1
2022-10-19T02:13:00.435Z,12.0
2022-10-19T02:14:00.308Z,12.0
2022-10-19T02:15:00.294Z,12.0
2022-10-19T02:16:00.309Z,11.9
2022-10-19T02:17:00.293Z,11.9
2022-10-19T02:18:00.581Z,11.9
2022-10-19T02:19:00.479Z,11.9
2022-10-19T02:20:00.293Z,11.8
2022-10-19T02:21:00.295Z,11.8
2022-10-19T02:22:00.299Z,11.8
2022-10-19T02:23:00.325Z,11.8
2022-10-19T02:24:00.312Z,11.8
2022-10-19T02:25:00.485Z,11.7
2022-10-19T02:26:00.299Z,11.7
2022-10-19T02:27:00.306Z,11.6
2022-10-19T02:28:00.339Z,11.6
2022-10-19T02:29:00.407Z,11.6
2022-10-19T02:30:00.322Z,11.6
2022-10-19T02:31:00.467Z,11.6
2022-10-19T02:32:00.309Z,11.6
2022-10-19T02:33:00.423Z,11.6
2022-10-19T02:34:00.371Z,11.6
2022-10-19T02:35:00.308Z,11.6
2022-10-19T02:36:00.380Z,11.6
2022-10-19T02:37:00.426Z,11.6
2022-10-19T02:38:00.315Z,11.6
2022-10-19T02:39:00.289Z,11.6
2022-10-19T02:40:00.290Z,11.6
2022-10-19T02:41:00.291Z,11.6
2022-10-19T02:42:00.304Z,11.7
2022-10-19T02:43:00.459Z,11.7
2022-10-19T02:44:00.304Z,11.7
2022-10-19T02:45:00.274Z,11.7
2022-10-19T02:46:00.304Z,11.7
2022-10-19T02:47:00.301Z,11.7
2022-10-19T02:48:00.407Z,11.7
2022-10-19T02:49:00.578Z,11.7
2022-10-19T02:50:00.305Z,11.7
2022-10-19T02:51:00.304Z,11.7
2022-10-19T02:52:00.291Z,11.7
2022-10-19T02:53:00.299Z,11.8
2022-10-19T02:54:04.122Z,11.8
2022-10-19T02:55:00.443Z,11.8
2022-10-19T02:56:00.288Z,11.8
2022-10-19T02:57:00.308Z,11.8
2022-10-19T02:58:00.269Z,11.7
2022-10-19T02:59:00.292Z,11.7
2022-10-19T03:00:00.284Z,11.7
2022-10-19T03:01:00.681Z,11.7
2022-10-19T03:02:00.283Z,11.7
2022-10-19T03:03:00.324Z,11.7
2022-10-19T03:04:00.402Z,11.7
2022-10-19T03:05:00.306Z,11.7
2022-10-19T03:06:00.290Z,11.7
2022-10-19T03:07:00.407Z,11.7
2022-10-19T03:08:00.341Z,11.7
2022-10-19T03:09:00.308Z,11.7
2022-10-19T03:10:00.276Z,11.7
2022-10-19T03:11:00.309Z,11.7
2022-10-19T03:12:00.278Z,11.7
2022-10-19T03:13:00.397Z,11.7
2022-10-19T03:14:00.300Z,11.8
2022-10-19T03:15:00.364Z,11.8
2022-10-19T03:16:00.276Z,11.9
2022-10-19T03:17:00.304Z,11.9
2022-10-19T03:18:00.289Z,12.0
2022-10-19T03:19:00.611Z,12.1
2022-10-19T03:20:00.329Z,12.1
2022-10-19T03:21:00.320Z,12.2
2022-10-19T03:22:00.375Z,12.3
2022-10-19T03:23:00.290Z,12.4
2022-10-19T03:24:00.291Z,12.4
2022-10-19T03:25:00.633Z,12.4
2022-10-19T03:26:00.277Z,12.4
2022-10-19T03:27:00.295Z,12.5
2022-10-19T03:28:00.291Z,12.5
2022-10-19T03:29:00.326Z,12.5
2022-10-19T03:30:00.297Z,12.6
2022-10-19T03:31:00.451Z,12.6
2022-10-19T03:32:00.287Z,12.6
2022-10-19T03:33:00.284Z,12.5
2022-10-19T03:34:00.475Z,12.6
2022-10-19T03:35:00.415Z,12.6
2022-10-19T03:36:00.307Z,12.7
2022-10-19T03:37:00.373Z,12.7
2022-10-19T03:38:00.288Z,12.8
2022-10-19T03:39:00.286Z,12.8
2022-10-19T03:40:00.301Z,12.8
2022-10-19T03:41:00.297Z,12.8
2022-10-19T03:42:00.286Z,12.9
2022-10-19T03:43:00.461Z,12.9
2022-10-19T03:45:00.350Z,12.9
2022-10-19T03:46:00.369Z,12.9
2022-10-19T03:47:00.312Z,12.9
2022-10-19T03:48:00.342Z,13.0
2022-10-19T03:49:00.419Z,13.0
2022-10-19T03:50:00.448Z,12.9
2022-10-19T03:51:00.468Z,12.9
2022-10-19T03:52:00.304Z,12.9
2022-10-19T03:53:00.365Z,13.0
2022-10-19T03:54:00.318Z,13.0
2022-10-19T03:55:00.553Z,12.9
2022-10-19T03:56:00.293Z,12.8
2022-10-19T03:57:00.297Z,12.7
2022-10-19T03:58:00.283Z,12.6
2022-10-19T03:59:00.288Z,12.7
2022-10-19T04:00:00.267Z,12.7
2022-10-19T04:01:00.508Z,12.7
2022-10-19T04:02:00.273Z,12.6
2022-10-19T04:03:00.273Z,12.6
2022-10-19T04:04:00.269Z,12.5
2022-10-19T04:05:00.287Z,12.5
2022-10-19T04:06:00.504Z,12.5
2022-10-19T04:07:00.490Z,12.5
2022-10-19T04:08:00.275Z,12.6
2022-10-19T04:09:00.287Z,12.6
2022-10-19T04:10:00.277Z,12.6
2022-10-19T04:11:00.274Z,12.6
2022-10-19T04:12:00.286Z,12.6
2022-10-19T04:13:00.482Z,12.6
2022-10-19T04:14:00.371Z,12.6
2022-10-19T04:15:00.284Z,12.6
2022-10-19T04:16:00.284Z,12.7
2022-10-19T04:17:00.302Z,12.8
2022-10-19T04:18:00.305Z,12.9
2022-10-19T04:19:00.669Z,13.0
2022-10-19T04:20:00.315Z,13.1
2022-10-19T04:21:00.439Z,13.2
2022-10-19T04:22:00.330Z,13.4
2022-10-19T04:23:00.359Z,13.4
2022-10-19T04:24:00.289Z,13.5
2022-10-19T04:25:00.482Z,13.6
2022-10-19T04:26:00.366Z,13.7
2022-10-19T04:27:00.314Z,13.7
2022-10-19T04:28:00.339Z,13.7
2022-10-19T04:29:00.400Z,13.8
2022-10-19T04:30:00.301Z,13.9
2022-10-19T04:31:00.423Z,14.1
2022-10-19T04:32:00.352Z,14.3
2022-10-19T04:33:00.310Z,14.4
2022-10-19T04:34:00.299Z,14.5
2022-10-19T04:35:00.311Z,14.6
2022-10-19T04:36:00.407Z,14.7
2022-10-19T04:37:00.536Z,14.7
2022-10-19T04:38:00.271Z,14.7
2022-10-19T04:39:00.301Z,14.7
2022-10-19T04:40:00.272Z,14.7
2022-10-19T04:41:00.289Z,14.7
2022-10-19T04:42:00.287Z,14.8
2022-10-19T04:43:00.411Z,14.8
2022-10-19T04:44:00.320Z,14.9
2022-10-19T04:45:00.289Z,15.0
2022-10-19T04:46:00.283Z,15.7
2022-10-19T04:47:00.303Z,17.1
2022-10-19T04:48:00.277Z,18.7
2022-10-19T04:49:00.434Z,19.9
2022-10-19T04:50:00.302Z,20.8
2022-10-19T04:51:00.462Z,21.6
2022-10-19T04:52:00.268Z,22.4
2022-10-19T04:53:00.281Z,23.0
2022-10-19T04:54:00.356Z,23.5
2022-10-19T04:55:00.452Z,24.0
2022-10-19T04:56:00.293Z,24.4
2022-10-19T04:57:00.291Z,24.8
2022-10-19T04:58:00.283Z,25.3
2022-10-19T04:59:00.293Z,25.8
2022-10-19T05:00:00.309Z,26.2
2022-10-19T05:01:00.560Z,26.6
2022-10-19T05:02:00.294Z,27.0
2022-10-19T05:03:00.290Z,27.3
2022-10-19T05:04:00.404Z,27.5
2022-10-19T05:05:00.294Z,27.8
2022-10-19T05:06:00.409Z,28.1
2022-10-19T05:07:00.428Z,28.4
2022-10-19T05:08:00.351Z,28.8
2022-10-19T05:09:00.329Z,29.0
2022-10-19T05:10:00.358Z,29.2
2022-10-19T05:11:00.295Z,29.3
2022-10-19T05:12:00.287Z,29.4
2022-10-19T05:13:00.525Z,29.6
2022-10-19T05:14:00.325Z,29.8
2022-10-19T05:15:00.346Z,30.1
2022-10-19T05:16:00.302Z,30.4
2022-10-19T05:17:00.306Z,30.6
2022-10-19T05:18:00.316Z,30.8
2022-10-19T05:19:00.466Z,31.1
2022-10-19T05:20:00.301Z,31.4
2022-10-19T05:21:00.442Z,31.7
2022-10-19T05:22:00.285Z,31.9
2022-10-19T05:23:04.702Z,32.0
2022-10-19T05:24:00.277Z,32.1
2022-10-19T05:25:00.423Z,32.3
2022-10-19T05:26:00.302Z,32.4
2022-10-19T05:27:00.289Z,32.5
2022-10-19T05:28:00.277Z,32.5
2022-10-19T05:29:00.330Z,32.6
2022-10-19T05:30:00.288Z,32.7
2022-10-19T05:31:00.435Z,32.8
2022-10-19T05:32:00.288Z,32.9
2022-10-19T05:33:00.298Z,33.0
2022-10-19T05:34:00.390Z,33.1
2022-10-19T05:35:00.304Z,33.1
2022-10-19T05:36:00.447Z,33.2
2022-10-19T05:37:00.446Z,33.2
2022-10-19T05:38:00.303Z,33.2
2022-10-19T05:39:00.294Z,33.4
2022-10-19T05:40:00.316Z,33.5
2022-10-19T05:41:00.308Z,33.8
2022-10-19T05:42:00.293Z,34.1
2022-10-19T05:43:00.453Z,34.4
2022-10-19T05:44:00.286Z,34.8
2022-10-19T05:45:00.302Z,35.0
2022-10-19T05:46:00.301Z,35.2
2022-10-19T05:47:00.319Z,35.3
2022-10-19T05:48:00.284Z,35.4
2022-10-19T05:49:00.403Z,35.6
2022-10-19T05:50:00.294Z,35.6
2022-10-19T05:51:00.511Z,35.7
2022-10-19T05:52:00.402Z,35.8
2022-10-19T05:53:00.290Z,36.0
2022-10-19T05:54:00.351Z,36.2
2022-10-19T05:55:00.418Z,36.4
2022-10-19T05:56:00.319Z,36.6
2022-10-19T05:57:00.324Z,36.7
2022-10-19T05:58:00.277Z,36.8
2022-10-19T05:59:00.374Z,36.9
2022-10-19T06:00:00.329Z,36.9
2022-10-19T06:01:00.512Z,36.9
2022-10-19T06:02:00.346Z,36.9
2022-10-19T06:03:00.382Z,36.9
2022-10-19T06:04:00.396Z,36.9
2022-10-19T06:05:00.301Z,36.9
2022-10-19T06:06:00.296Z,36.9
2022-10-19T06:07:00.694Z,37.0
2022-10-19T06:08:00.296Z,37.0
2022-10-19T06:09:00.304Z,37.0
2022-10-19T06:10:00.291Z,37.1
2022-10-19T06:11:00.287Z,37.0
2022-10-19T06:12:00.297Z,36.9
2022-10-19T06:13:00.420Z,36.9
2022-10-19T06:14:00.277Z,36.9
2022-10-19T06:15:00.307Z,36.9
2022-10-19T06:16:00.271Z,37.0
2022-10-19T06:17:00.311Z,37.1
2022-10-19T06:18:00.366Z,37.2
2022-10-19T06:19:00.523Z,37.3
2022-10-19T06:20:00.283Z,37.4
2022-10-19T06:21:00.393Z,37.4
2022-10-19T06:22:00.511Z,37.5
2022-10-19T06:23:00.333Z,37.4
2022-10-19T06:24:00.361Z,37.4
2022-10-19T06:25:00.531Z,37.6
2022-10-19T06:26:00.348Z,38.0
2022-10-19T06:27:00.328Z,38.1
2022-10-19T06:28:00.385Z,38.2
2022-10-19T06:29:00.372Z,38.5
2022-10-19T06:30:00.338Z,38.5
2022-10-19T06:31:00.669Z,38.5
2022-10-19T06:32:00.309Z,38.4
2022-10-19T06:33:00.442Z,38.2
2022-10-19T06:34:00.416Z,37.7
2022-10-19T06:35:00.329Z,36.8
2022-10-19T06:36:00.372Z,36.7
2022-10-19T06:37:00.508Z,36.5
2022-10-19T06:38:00.339Z,35.6
2022-10-19T06:39:00.280Z,35.5
2022-10-19T06:40:04.718Z,36.0
2022-10-19T06:41:00.294Z,36.4
2022-10-19T06:42:00.361Z,36.6
2022-10-19T06:43:00.576Z,36.7
2022-10-19T06:44:00.301Z,37.0
2022-10-19T06:45:00.366Z,37.2
2022-10-19T06:46:00.306Z,37.4
2022-10-19T06:47:00.313Z,37.1
2022-10-19T06:48:03.519Z,37.0
2022-10-19T06:49:00.458Z,37.0
2022-10-19T06:50:00.400Z,36.9
2022-10-19T06:51:00.313Z,37.2
2022-10-19T06:52:00.515Z,37.6
2022-10-19T06:53:00.273Z,37.7
2022-10-19T06:54:00.293Z,37.4
2022-10-19T06:55:00.500Z,37.4
2022-10-19T06:56:00.309Z,37.5
2022-10-19T06:57:00.298Z,37.4
2022-10-19T06:58:00.294Z,37.6
2022-10-19T06:59:00.291Z,37.9
2022-10-19T07:00:00.297Z,38.3
2022-10-19T07:01:00.464Z,38.4
2022-10-19T07:02:00.289Z,38.2
2022-10-19T07:03:00.285Z,38.2
2022-10-19T07:04:00.300Z,38.3
2022-10-19T07:05:04.630Z,38.4
2022-10-19T07:06:00.287Z,38.4
2022-10-19T07:07:00.536Z,38.2
2022-10-19T07:09:00.274Z,38.2
2022-10-19T07:10:00.288Z,38.2
2022-10-19T07:11:00.296Z,38.3
2022-10-19T07:12:00.290Z,38.3
2022-10-19T07:13:00.583Z,38.2
2022-10-19T07:14:00.275Z,38.0
2022-10-19T07:15:00.312Z,38.1
2022-10-19T07:16:00.281Z,38.2
2022-10-19T07:17:00.292Z,38.4
2022-10-19T07:18:00.306Z,38.1
2022-10-19T07:19:00.526Z,37.7
2022-10-19T07:20:00.308Z,37.7
2022-10-19T07:21:00.293Z,38.0
2022-10-19T07:22:00.543Z,38.3
2022-10-19T07:23:00.281Z,38.6
2022-10-19T07:24:00.361Z,39.0
2022-10-19T07:25:00.447Z,39.1
2022-10-19T07:26:00.376Z,39.2
2022-10-19T07:27:00.284Z,39.5
2022-10-19T07:28:00.356Z,39.9
2022-10-19T07:29:00.305Z,40.3
2022-10-19T07:30:00.365Z,40.1
2022-10-19T07:31:00.474Z,39.8
2022-10-19T07:32:00.311Z,39.6
2022-10-19T07:33:00.348Z,39.4
2022-10-19T07:34:00.367Z,39.2
2022-10-19T07:35:00.339Z,39.1
2022-10-19T07:36:00.281Z,39.1
2022-10-19T07:37:00.724Z,37.1
2022-10-19T07:38:00.299Z,37.6
2022-10-19T07:39:00.291Z,38.0
2022-10-19T07:40:00.292Z,38.4
2022-10-19T07:41:00.309Z,38.7
2022-10-19T07:42:00.318Z,38.6
2022-10-19T07:43:00.431Z,38.4
2022-10-19T07:44:00.283Z,38.6
2022-10-19T07:45:00.278Z,38.9
2022-10-19T07:46:00.288Z,39.0
2022-10-19T07:47:00.296Z,38.9
2022-10-19T07:48:00.275Z,38.6
2022-10-19T07:49:00.528Z,38.5
2022-10-19T07:50:00.297Z,38.6
2022-10-19T07:51:00.315Z,38.8
2022-10-19T07:52:00.470Z,39.1
2022-10-19T07:53:00.297Z,39.0
2022-10-19T07:54:00.312Z,38.6
2022-10-19T07:55:00.449Z,38.0
2022-10-19T07:56:00.289Z,37.8
2022-10-19T07:57:00.355Z,38.4
2022-10-19T07:58:00.305Z,38.8
2022-10-19T07:59:00.336Z,38.8
2022-10-19T08:00:00.335Z,38.7
2022-10-19T08:01:00.472Z,38.7
2022-10-19T08:02:00.402Z,38.8
2022-10-19T08:03:31.650Z,39.0
2022-10-19T08:05:03.959Z,39.0
2022-10-19T08:06:00.321Z,38.9
2022-10-19T08:07:00.525Z,38.8
2022-10-19T08:08:00.451Z,38.8
2022-10-19T08:09:00.499Z,39.2
2022-10-19T08:10:00.289Z,39.3
2022-10-19T08:11:00.372Z,39.6
2022-10-19T08:12:00.276Z,39.8
2022-10-19T08:13:00.464Z,40.0
2022-10-19T08:14:00.311Z,39.9
2022-10-19T08:15:00.287Z,39.9
2022-10-19T08:16:00.292Z,40.0
2022-10-19T08:17:00.295Z,40.1
2022-10-19T08:18:00.290Z,40.3
2022-10-19T08:19:00.693Z,40.4
2022-10-19T08:20:00.297Z,40.5
2022-10-19T08:21:00.313Z,40.8
2022-10-19T08:22:00.314Z,41.1
2022-10-19T08:23:00.493Z,41.4
2022-10-19T08:24:00.298Z,41.0
2022-10-19T08:25:00.448Z,40.4
2022-10-19T08:26:00.292Z,39.8
2022-10-19T08:27:00.335Z,39.5
2022-10-19T08:28:00.300Z,39.7
2022-10-19T08:29:00.308Z,39.7
2022-10-19T08:30:00.300Z,39.9
2022-10-19T08:31:00.430Z,39.8
2022-10-19T08:32:00.323Z,39.7
2022-10-19T08:33:00.339Z,39.8
2022-10-19T08:34:00.295Z,40.0
2022-10-19T08:35:00.312Z,40.2
2022-10-19T08:36:00.296Z,40.4
2022-10-19T08:37:04.098Z,40.5
2022-10-19T08:38:02.795Z,40.2
2022-10-19T08:39:00.288Z,40.2
2022-10-19T08:40:00.339Z,40.1
2022-10-19T08:41:00.275Z,39.5
2022-10-19T08:42:00.359Z,38.9
2022-10-19T08:43:00.531Z,38.6
2022-10-19T08:44:00.303Z,38.4
2022-10-19T08:45:00.334Z,38.6
2022-10-19T08:46:00.273Z,37.0
2022-10-19T08:47:02.439Z,36.1
2022-10-19T08:48:00.338Z,34.6
2022-10-19T08:49:00.452Z,33.3
2022-10-19T08:50:00.319Z,32.7
2022-10-19T08:51:00.351Z,32.9
2022-10-19T08:52:00.367Z,33.0
2022-10-19T08:53:00.482Z,34.1
2022-10-19T08:54:00.346Z,35.4
2022-10-19T08:55:00.519Z,36.4
2022-10-19T08:56:03.765Z,35.1
2022-10-19T08:57:00.320Z,34.8
2022-10-19T08:58:00.344Z,33.1
2022-10-19T08:59:00.308Z,31.3
2022-10-19T09:00:00.315Z,30.4
2022-10-19T09:01:00.597Z,29.4
2022-10-19T09:02:00.313Z,28.5
2022-10-19T09:03:00.331Z,27.8
2022-10-19T09:04:00.312Z,27.3
2022-10-19T09:05:00.299Z,26.9
2022-10-19T09:06:00.300Z,26.6
2022-10-19T09:07:00.442Z,26.4
2022-10-19T09:08:00.432Z,26.3
2022-10-19T09:09:00.393Z,27.1
2022-10-19T09:10:00.306Z,29.3
2022-10-19T09:11:00.363Z,28.8
2022-10-19T09:12:00.332Z,27.6
2022-10-19T09:13:00.427Z,27.1
2022-10-19T09:14:05.077Z,27.4
2022-10-19T09:15:00.284Z,26.9
2022-10-19T09:16:00.313Z,26.9
2022-10-19T09:17:00.311Z,28.6
2022-10-19T09:18:00.313Z,29.1
2022-10-19T09:19:00.447Z,29.0
2022-10-19T09:20:00.305Z,29.1
2022-10-19T09:21:00.299Z,30.9
2022-10-19T09:22:00.293Z,31.8
2022-10-19T09:23:00.540Z,32.7
2022-10-19T09:24:00.453Z,32.9
2022-10-19T09:25:00.499Z,30.9
2022-10-19T09:26:00.353Z,29.3
2022-10-19T09:27:00.400Z,28.0
2022-10-19T09:29:00.389Z,26.9
2022-10-19T09:30:00.289Z,26.4
2022-10-19T09:31:00.477Z,26.1
2022-10-19T09:32:00.400Z,25.8
2022-10-19T09:33:00.381Z,25.7
2022-10-19T09:34:00.379Z,25.6
2022-10-19T09:35:00.311Z,25.4
2022-10-19T09:36:00.406Z,25.4
2022-10-19T09:37:00.554Z,25.4
2022-10-19T09:38:00.434Z,25.6
2022-10-19T09:39:00.378Z,26.2
2022-10-19T09:40:00.291Z,26.5
2022-10-19T09:41:00.308Z,27.1
2022-10-19T09:42:00.290Z,27.7
2022-10-19T09:43:00.469Z,27.9
2022-10-19T09:44:00.275Z,28.4
2022-10-19T09:45:00.302Z,28.7
2022-10-19T09:46:00.306Z,28.8
2022-10-19T09:47:00.341Z,30.0
2022-10-19T09:48:08.658Z,30.3
2022-10-19T09:49:00.443Z,31.2
2022-10-19T09:50:00.316Z,31.3
2022-10-19T09:51:00.290Z,32.0
2022-10-19T09:52:00.286Z,32.1
2022-10-19T09:53:00.441Z,32.8
2022-10-19T09:54:00.282Z,33.4
2022-10-19T09:55:00.532Z,34.7
2022-10-19T09:56:00.288Z,35.3
2022-10-19T09:57:00.302Z,35.7
2022-10-19T09:58:00.305Z,36.3
2022-10-19T09:59:00.283Z,36.3
2022-10-19T10:00:00.308Z,36.0
2022-10-19T10:01:00.496Z,35.3
2022-10-19T10:02:00.366Z,34.5
2022-10-19T10:03:00.293Z,34.6
2022-10-19T10:04:00.290Z,35.5
2022-10-19T10:05:00.278Z,35.8
2022-10-19T10:06:00.303Z,35.7
2022-10-19T10:07:00.447Z,35.4
2022-10-19T10:08:00.417Z,35.4
2022-10-19T10:09:00.374Z,35.3
2022-10-19T10:10:00.356Z,35.0
2022-10-19T10:11:00.334Z,35.3
2022-10-19T10:12:00.495Z,35.1
2022-10-19T10:13:00.466Z,35.4
2022-10-19T10:14:00.319Z,35.4
2022-10-19T10:15:00.363Z,35.1
2022-10-19T10:16:00.328Z,34.6
2022-10-19T10:17:00.342Z,34.5
2022-10-19T10:18:00.276Z,34.5
2022-10-19T10:19:00.493Z,34.1
2022-10-19T10:20:00.312Z,33.9
2022-10-19T10:21:00.394Z,34.1
2022-10-19T10:22:00.419Z,33.9
2022-10-19T10:23:00.464Z,34.0
2022-10-19T10:24:00.308Z,34.1
2022-10-19T10:25:00.569Z,33.6
2022-10-19T10:26:00.295Z,33.4
2022-10-19T10:27:00.318Z,33.4
2022-10-19T10:28:00.318Z,33.6
2022-10-19T10:29:01.581Z,33.3
2022-10-19T10:30:00.464Z,33.6
2022-10-19T10:31:00.437Z,33.8
2022-10-19T10:32:00.293Z,33.8
2022-10-19T10:33:09.250Z,33.4
2022-10-19T10:34:06.585Z,33.5
2022-10-19T10:35:01.492Z,33.4
2022-10-19T10:36:00.345Z,33.7
2022-10-19T10:37:00.523Z,34.2
2022-10-19T10:38:00.495Z,33.8
2022-10-19T10:39:00.309Z,32.6
2022-10-19T10:40:03.618Z,32.5
2022-10-19T10:41:00.314Z,32.0
2022-10-19T10:42:00.291Z,31.1
2022-10-19T10:43:00.444Z,30.7
2022-10-19T10:44:03.694Z,30.4
2022-10-19T10:45:00.293Z,30.6
2022-10-19T10:46:00.291Z,31.1
2022-10-19T10:47:00.283Z,31.5
2022-10-19T10:48:00.358Z,32.0
2022-10-19T10:49:00.506Z,32.4
2022-10-19T10:50:00.294Z,32.1
2022-10-19T10:51:00.294Z,31.4
2022-10-19T10:52:00.337Z,30.8
2022-10-19T10:53:00.485Z,30.4
2022-10-19T10:54:00.306Z,30.2
2022-10-19T10:55:00.550Z,29.7
2022-10-19T10:56:00.368Z,29.4
2022-10-19T10:57:04.305Z,29.2
2022-10-19T10:58:00.314Z,28.7
2022-10-19T10:59:00.302Z,28.4
2022-10-19T11:00:00.374Z,28.2
2022-10-19T11:01:05.253Z,28.2
2022-10-19T11:02:00.399Z,27.8
2022-10-19T11:03:00.302Z,27.6
2022-10-19T11:04:00.362Z,27.3
2022-10-19T11:05:00.587Z,26.9
2022-10-19T11:06:00.304Z,25.9
2022-10-19T11:07:00.474Z,25.2
2022-10-19T11:08:00.518Z,24.7
2022-10-19T11:09:00.379Z,24.4
2022-10-19T11:10:00.296Z,24.1
2022-10-19T11:11:00.296Z,23.9
2022-10-19T11:12:00.295Z,23.8
2022-10-19T11:13:00.441Z,23.7
2022-10-19T11:14:00.301Z,23.6
2022-10-19T11:15:00.337Z,23.5
2022-10-19T11:16:00.304Z,23.4
2022-10-19T11:17:00.312Z,23.3
2022-10-19T11:18:00.296Z,23.2
2022-10-19T11:19:00.422Z,23.2
2022-10-19T11:20:00.313Z,23.0
2022-10-19T11:21:00.304Z,22.9
2022-10-19T11:22:00.307Z,22.7
2022-10-19T11:23:00.439Z,22.4
2022-10-19T11:24:00.309Z,22.2
2022-10-19T11:25:00.682Z,22.1
2022-10-19T11:26:00.314Z,22.0
2022-10-19T11:27:00.313Z,22.0
2022-10-19T11:28:00.306Z,22.0
2022-10-19T11:29:00.329Z,22.0
2022-10-19T11:30:00.304Z,22.0
2022-10-19T11:31:00.469Z,22.0
2022-10-19T11:32:00.348Z,22.0
2022-10-19T11:33:00.344Z,22.0
2022-10-19T11:34:00.493Z,22.0
2022-10-19T11:35:00.380Z,22.0
2022-10-19T11:36:00.324Z,22.0
2022-10-19T11:37:00.636Z,22.0
2022-10-19T11:38:18.798Z,22.0
2022-10-19T11:39:00.359Z,22.0
2022-10-19T11:40:00.341Z,22.0
2022-10-19T11:41:16.875Z,22.0
2022-10-19T11:42:00.372Z,22.0
2022-10-19T11:43:00.517Z,22.0
2022-10-19T11:44:00.304Z,22.0
2022-10-19T11:45:00.315Z,22.0
2022-10-19T11:46:00.320Z,21.9
2022-10-19T11:47:00.313Z,21.8
2022-10-19T11:48:00.308Z,21.7
2022-10-19T11:49:00.377Z,21.6
2022-10-19T11:50:00.349Z,21.6
2022-10-19T11:51:16.785Z,21.5
2022-10-19T11:52:00.279Z,21.5
2022-10-19T11:53:00.428Z,21.4
2022-10-19T11:54:00.311Z,21.4
2022-10-19T11:55:00.376Z,21.4
2022-10-19T11:56:00.293Z,21.3
2022-10-19T11:57:06.392Z,21.2
2022-10-19T11:58:00.315Z,21.2
2022-10-19T11:59:00.345Z,21.1
2022-10-19T12:00:08.573Z,21.0
2022-10-19T12:01:00.555Z,21.0
2022-10-19T12:02:00.354Z,20.9
2022-10-19T12:03:03.490Z,20.9
2022-10-19T12:04:00.303Z,20.9
2022-10-19T12:05:00.324Z,21.0
2022-10-19T12:06:00.291Z,21.0
2022-10-19T12:07:00.531Z,21.0
2022-10-19T12:08:00.409Z,21.1
2022-10-19T12:09:00.360Z,21.1
2022-10-19T12:10:00.295Z,21.2
2022-10-19T12:11:00.316Z,21.2
2022-10-19T12:12:00.289Z,21.2
2022-10-19T12:13:00.393Z,21.2
2022-10-19T12:14:00.282Z,21.3
2022-10-19T12:15:00.312Z,21.3
2022-10-19T12:16:00.286Z,21.4
2022-10-19T12:17:00.386Z,21.4
2022-10-19T12:18:00.322Z,21.4
2022-10-19T12:19:00.484Z,21.3
2022-10-19T12:20:00.370Z,21.3
2022-10-19T12:21:00.292Z,21.2
2022-10-19T12:22:00.349Z,21.2
2022-10-19T12:23:00.409Z,21.1
2022-10-19T12:24:00.341Z,21.2
2022-10-19T12:25:00.505Z,21.2
2022-10-19T12:26:00.281Z,21.2
2022-10-19T12:27:00.376Z,21.1
2022-10-19T12:28:00.401Z,21.0
2022-10-19T12:29:00.303Z,21.0
2022-10-19T12:30:00.298Z,20.9
2022-10-19T12:31:00.584Z,20.9
2022-10-19T12:32:00.291Z,20.8
2022-10-19T12:33:00.290Z,20.7
2022-10-19T12:34:00.317Z,20.7
2022-10-19T12:35:00.373Z,20.6
2022-10-19T12:36:00.301Z,20.6
2022-10-19T12:37:00.514Z,20.6
2022-10-19T12:38:00.516Z,20.6
2022-10-19T12:39:00.680Z,20.6
2022-10-19T12:40:00.328Z,20.7
2022-10-19T12:41:00.354Z,20.7
2022-10-19T12:42:00.388Z,20.7
2022-10-19T12:43:00.802Z,20.8
2022-10-19T12:44:00.322Z,20.8
2022-10-19T12:45:00.316Z,20.9
2022-10-19T12:46:00.401Z,21.0
2022-10-19T12:47:01.063Z,21.0
2022-10-19T12:48:00.310Z,21.0
2022-10-19T12:49:00.469Z,21.0
2022-10-19T12:50:00.358Z,20.9
2022-10-19T12:51:00.295Z,20.8
2022-10-19T12:52:00.317Z,20.8
2022-10-19T12:53:00.383Z,20.7
2022-10-19T12:54:00.359Z,20.6
2022-10-19T12:55:00.521Z,20.6
2022-10-19T12:56:00.436Z,20.5
2022-10-19T12:57:00.417Z,20.4
2022-10-19T12:58:00.405Z,20.3
2022-10-19T12:59:00.319Z,20.2
2022-10-19T13:00:00.323Z,20.1
2022-10-19T13:01:00.814Z,20.1
2022-10-19T13:02:00.292Z,20.1
2022-10-19T13:03:00.438Z,20.1
2022-10-19T13:04:00.389Z,20.0
2022-10-19T13:05:00.500Z,20.0
2022-10-19T13:06:00.421Z,20.0
2022-10-19T13:07:00.663Z,20.1
2022-10-19T13:08:00.492Z,20.1
2022-10-19T13:09:00.583Z,20.1
2022-10-19T13:10:00.401Z,20.1
2022-10-19T13:11:00.359Z,20.2
2022-10-19T13:12:00.307Z,20.2
2022-10-19T13:13:00.932Z,20.3
2022-10-19T13:14:00.318Z,20.2
2022-10-19T13:15:00.548Z,20.2
2022-10-19T13:16:00.297Z,20.2
2022-10-19T13:17:00.472Z,20.2
2022-10-19T13:18:00.393Z,20.1
2022-10-19T13:19:00.489Z,20.1
2022-10-19T13:20:00.468Z,20.1
2022-10-19T13:21:02.550Z,20.1
2022-10-19T13:22:00.385Z,20.0